sensor_id;sensor_type;location;lat;lon;timestamp;P1;durP1;ratioP1;P2;durP2;ratioP2
49464;SDS011;35358;49.342;8.802;2023-03-29T00:01:39;3.45;;;1.13;;
49464;SDS011;35358;49.342;8.802;2023-03-29T00:04:06;2.10;;;1.23;;
49464;SDS011;35358;49.342;8.802;2023-03-29T00:06:37;2.38;;;1.17;;
49464;SDS011;35358;49.342;8.802;2023-03-29T00:09:05;3.15;;;1.40;;
49464;SDS011;35358;49.342;8.802;2023-03-29T00:11:34;1.27;;;1.10;;
49464;SDS011;35358;49.342;8.802;2023-03-29T00:14:04;1.52;;;1.10;;
49464;SDS011;35358;49.342;8.802;2023-03-29T00:16:30;2.10;;;1.23;;
49464;SDS011;35358;49.342;8.802;2023-03-29T00:18:56;2.03;;;1.30;;
49464;SDS011;35358;49.342;8.802;2023-03-29T00:21:24;5.80;;;1.35;;
49464;SDS011;35358;49.342;8.802;2023-03-29T00:23:50;2.50;;;1.38;;
49464;SDS011;35358;49.342;8.802;2023-03-29T00:26:16;2.45;;;1.50;;
49464;SDS011;35358;49.342;8.802;2023-03-29T00:28:41;1.38;;;1.05;;
49464;SDS011;35358;49.342;8.802;2023-03-29T00:31:11;3.88;;;1.20;;
49464;SDS011;35358;49.342;8.802;2023-03-29T00:33:42;3.40;;;1.40;;
49464;SDS011;35358;49.342;8.802;2023-03-29T00:36:10;3.03;;;1.58;;
49464;SDS011;35358;49.342;8.802;2023-03-29T00:38:38;3.03;;;1.52;;
49464;SDS011;35358;49.342;8.802;2023-03-29T00:41:07;4.82;;;2.00;;
49464;SDS011;35358;49.342;8.802;2023-03-29T00:43:57;5.30;;;1.58;;
49464;SDS011;35358;49.342;8.802;2023-03-29T00:46:23;6.68;;;1.60;;
49464;SDS011;35358;49.342;8.802;2023-03-29T00:48:53;3.05;;;1.30;;
49464;SDS011;35358;49.342;8.802;2023-03-29T00:51:32;2.05;;;1.50;;
49464;SDS011;35358;49.342;8.802;2023-03-29T00:54:00;2.75;;;1.48;;
49464;SDS011;35358;49.342;8.802;2023-03-29T00:56:32;3.38;;;1.58;;
49464;SDS011;35358;49.342;8.802;2023-03-29T00:59:17;2.55;;;1.52;;
49464;SDS011;35358;49.342;8.802;2023-03-29T01:02:06;2.42;;;1.52;;
49464;SDS011;35358;49.342;8.802;2023-03-29T01:04:36;3.55;;;1.50;;
49464;SDS011;35358;49.342;8.802;2023-03-29T01:09:52;2.55;;;1.60;;
49464;SDS011;35358;49.342;8.802;2023-03-29T01:12:23;2.25;;;1.48;;
49464;SDS011;35358;49.342;8.802;2023-03-29T01:15:02;4.05;;;1.95;;
49464;SDS011;35358;49.342;8.802;2023-03-29T01:17:34;2.65;;;1.63;;
49464;SDS011;35358;49.342;8.802;2023-03-29T01:20:08;3.88;;;1.27;;
49464;SDS011;35358;49.342;8.802;2023-03-29T01:30:15;2.55;;;1.42;;
49464;SDS011;35358;49.342;8.802;2023-03-29T01:32:55;2.33;;;1.75;;
49464;SDS011;35358;49.342;8.802;2023-03-29T01:35:41;3.75;;;1.20;;
49464;SDS011;35358;49.342;8.802;2023-03-29T01:38:17;4.45;;;1.45;;
49464;SDS011;35358;49.342;8.802;2023-03-29T01:40:50;1.60;;;1.38;;
49464;SDS011;35358;49.342;8.802;2023-03-29T01:51:08;2.20;;;1.40;;
49464;SDS011;35358;49.342;8.802;2023-03-29T01:56:15;3.10;;;1.50;;
49464;SDS011;35358;49.342;8.802;2023-03-29T01:58:44;4.40;;;1.50;;
49464;SDS011;35358;49.342;8.802;2023-03-29T02:01:13;2.33;;;1.65;;
49464;SDS011;35358;49.342;8.802;2023-03-29T02:03:46;3.35;;;1.40;;
49464;SDS011;35358;49.342;8.802;2023-03-29T02:06:21;2.92;;;1.40;;
49464;SDS011;35358;49.342;8.802;2023-03-29T02:08:51;1.95;;;1.52;;
49464;SDS011;35358;49.342;8.802;2023-03-29T02:11:20;4.10;;;1.63;;
49464;SDS011;35358;49.342;8.802;2023-03-29T02:13:50;3.55;;;1.25;;
49464;SDS011;35358;49.342;8.802;2023-03-29T02:16:16;3.50;;;1.77;;
49464;SDS011;35358;49.342;8.802;2023-03-29T02:18:45;4.57;;;1.90;;
49464;SDS011;35358;49.342;8.802;2023-03-29T02:21:15;4.30;;;1.73;;
49464;SDS011;35358;49.342;8.802;2023-03-29T02:23:53;3.92;;;1.55;;
49464;SDS011;35358;49.342;8.802;2023-03-29T02:26:24;3.20;;;1.42;;
49464;SDS011;35358;49.342;8.802;2023-03-29T02:28:50;3.40;;;1.63;;
49464;SDS011;35358;49.342;8.802;2023-03-29T02:33:57;3.03;;;1.55;;
49464;SDS011;35358;49.342;8.802;2023-03-29T02:36:58;2.92;;;1.48;;
49464;SDS011;35358;49.342;8.802;2023-03-29T02:39:28;2.88;;;1.38;;
49464;SDS011;35358;49.342;8.802;2023-03-29T02:41:58;4.22;;;1.60;;
49464;SDS011;35358;49.342;8.802;2023-03-29T02:44:26;4.47;;;1.70;;
49464;SDS011;35358;49.342;8.802;2023-03-29T02:47:02;2.55;;;1.35;;
49464;SDS011;35358;49.342;8.802;2023-03-29T02:49:32;2.35;;;1.42;;
49464;SDS011;35358;49.342;8.802;2023-03-29T02:52:00;2.42;;;1.45;;
49464;SDS011;35358;49.342;8.802;2023-03-29T02:54:33;2.55;;;2.00;;
49464;SDS011;35358;49.342;8.802;2023-03-29T02:57:02;5.25;;;1.52;;
49464;SDS011;35358;49.342;8.802;2023-03-29T02:59:32;2.63;;;1.55;;
49464;SDS011;35358;49.342;8.802;2023-03-29T03:02:02;2.30;;;1.30;;
49464;SDS011;35358;49.342;8.802;2023-03-29T03:04:29;1.90;;;1.38;;
49464;SDS011;35358;49.342;8.802;2023-03-29T03:06:55;3.15;;;1.40;;
49464;SDS011;35358;49.342;8.802;2023-03-29T03:09:21;1.55;;;1.20;;
49464;SDS011;35358;49.342;8.802;2023-03-29T03:11:49;1.98;;;1.33;;
49464;SDS011;35358;49.342;8.802;2023-03-29T03:14:17;2.95;;;1.48;;
49464;SDS011;35358;49.342;8.802;2023-03-29T03:16:46;4.00;;;1.38;;
49464;SDS011;35358;49.342;8.802;2023-03-29T03:19:16;3.13;;;1.67;;
49464;SDS011;35358;49.342;8.802;2023-03-29T03:21:43;2.47;;;1.42;;
49464;SDS011;35358;49.342;8.802;2023-03-29T03:24:11;3.20;;;1.30;;
49464;SDS011;35358;49.342;8.802;2023-03-29T03:26:37;4.40;;;1.70;;
49464;SDS011;35358;49.342;8.802;2023-03-29T03:29:05;4.80;;;1.17;;
49464;SDS011;35358;49.342;8.802;2023-03-29T03:31:30;2.85;;;1.35;;
49464;SDS011;35358;49.342;8.802;2023-03-29T03:33:57;3.97;;;1.27;;
49464;SDS011;35358;49.342;8.802;2023-03-29T03:36:23;1.65;;;1.10;;
49464;SDS011;35358;49.342;8.802;2023-03-29T03:38:55;2.88;;;1.30;;
49464;SDS011;35358;49.342;8.802;2023-03-29T03:41:21;6.13;;;1.77;;
49464;SDS011;35358;49.342;8.802;2023-03-29T03:43:50;2.25;;;1.38;;
49464;SDS011;35358;49.342;8.802;2023-03-29T03:46:18;5.28;;;1.52;;
49464;SDS011;35358;49.342;8.802;2023-03-29T03:48:44;10.40;;;3.33;;
49464;SDS011;35358;49.342;8.802;2023-03-29T03:51:10;3.97;;;1.67;;
49464;SDS011;35358;49.342;8.802;2023-03-29T03:53:39;6.93;;;4.93;;
49464;SDS011;35358;49.342;8.802;2023-03-29T03:56:04;8.43;;;5.15;;
49464;SDS011;35358;49.342;8.802;2023-03-29T03:58:34;6.05;;;4.43;;
49464;SDS011;35358;49.342;8.802;2023-03-29T04:01:00;3.17;;;2.75;;
49464;SDS011;35358;49.342;8.802;2023-03-29T04:03:26;4.03;;;2.75;;
49464;SDS011;35358;49.342;8.802;2023-03-29T04:05:51;6.15;;;3.25;;
49464;SDS011;35358;49.342;8.802;2023-03-29T04:08:17;3.13;;;2.28;;
49464;SDS011;35358;49.342;8.802;2023-03-29T04:10:50;3.35;;;2.20;;
49464;SDS011;35358;49.342;8.802;2023-03-29T04:13:19;4.88;;;2.78;;
49464;SDS011;35358;49.342;8.802;2023-03-29T04:15:46;2.72;;;1.85;;
49464;SDS011;35358;49.342;8.802;2023-03-29T04:18:18;3.95;;;1.80;;
49464;SDS011;35358;49.342;8.802;2023-03-29T04:20:44;4.10;;;2.80;;
49464;SDS011;35358;49.342;8.802;2023-03-29T04:23:13;3.05;;;2.15;;
49464;SDS011;35358;49.342;8.802;2023-03-29T04:25:39;4.13;;;2.20;;
49464;SDS011;35358;49.342;8.802;2023-03-29T04:28:05;2.97;;;1.95;;
49464;SDS011;35358;49.342;8.802;2023-03-29T04:30:33;4.97;;;2.45;;
49464;SDS011;35358;49.342;8.802;2023-03-29T04:33:01;3.53;;;2.83;;
49464;SDS011;35358;49.342;8.802;2023-03-29T04:35:30;3.75;;;2.10;;
49464;SDS011;35358;49.342;8.802;2023-03-29T04:38:00;4.70;;;1.83;;
49464;SDS011;35358;49.342;8.802;2023-03-29T04:40:28;2.00;;;1.60;;
49464;SDS011;35358;49.342;8.802;2023-03-29T04:42:54;3.35;;;2.03;;
49464;SDS011;35358;49.342;8.802;2023-03-29T04:45:20;3.28;;;2.13;;
49464;SDS011;35358;49.342;8.802;2023-03-29T04:47:46;2.25;;;2.03;;
49464;SDS011;35358;49.342;8.802;2023-03-29T04:50:14;3.35;;;2.35;;
49464;SDS011;35358;49.342;8.802;2023-03-29T04:52:39;3.28;;;2.08;;
49464;SDS011;35358;49.342;8.802;2023-03-29T04:55:05;4.00;;;2.50;;
49464;SDS011;35358;49.342;8.802;2023-03-29T04:57:34;3.33;;;2.92;;
49464;SDS011;35358;49.342;8.802;2023-03-29T05:00:02;3.08;;;2.78;;
49464;SDS011;35358;49.342;8.802;2023-03-29T05:02:44;5.37;;;3.30;;
49464;SDS011;35358;49.342;8.802;2023-03-29T05:05:10;5.70;;;2.83;;
49464;SDS011;35358;49.342;8.802;2023-03-29T05:07:36;6.57;;;3.85;;
49464;SDS011;35358;49.342;8.802;2023-03-29T05:10:02;4.78;;;3.90;;
49464;SDS011;35358;49.342;8.802;2023-03-29T05:12:32;4.70;;;3.40;;
49464;SDS011;35358;49.342;8.802;2023-03-29T05:15:00;5.80;;;4.22;;
49464;SDS011;35358;49.342;8.802;2023-03-29T05:17:26;3.72;;;2.28;;
49464;SDS011;35358;49.342;8.802;2023-03-29T05:19:52;3.70;;;2.42;;
49464;SDS011;35358;49.342;8.802;2023-03-29T05:22:18;4.75;;;2.63;;
49464;SDS011;35358;49.342;8.802;2023-03-29T05:24:45;4.40;;;3.25;;
49464;SDS011;35358;49.342;8.802;2023-03-29T05:27:13;6.82;;;3.28;;
49464;SDS011;35358;49.342;8.802;2023-03-29T05:29:39;5.47;;;3.10;;
49464;SDS011;35358;49.342;8.802;2023-03-29T05:32:05;3.65;;;2.70;;
49464;SDS011;35358;49.342;8.802;2023-03-29T05:34:30;3.17;;;2.35;;
49464;SDS011;35358;49.342;8.802;2023-03-29T05:36:56;4.32;;;2.33;;
49464;SDS011;35358;49.342;8.802;2023-03-29T05:39:23;2.60;;;1.80;;
49464;SDS011;35358;49.342;8.802;2023-03-29T05:41:51;4.43;;;2.20;;
49464;SDS011;35358;49.342;8.802;2023-03-29T05:44:17;4.00;;;2.25;;
49464;SDS011;35358;49.342;8.802;2023-03-29T05:46:42;4.85;;;2.58;;
49464;SDS011;35358;49.342;8.802;2023-03-29T05:49:10;2.75;;;1.98;;
49464;SDS011;35358;49.342;8.802;2023-03-29T05:51:36;5.50;;;2.15;;
49464;SDS011;35358;49.342;8.802;2023-03-29T05:54:02;2.97;;;2.17;;
49464;SDS011;35358;49.342;8.802;2023-03-29T05:56:27;7.30;;;3.55;;
49464;SDS011;35358;49.342;8.802;2023-03-29T05:58:55;13.93;;;7.63;;
49464;SDS011;35358;49.342;8.802;2023-03-29T06:01:22;15.88;;;9.60;;
49464;SDS011;35358;49.342;8.802;2023-03-29T06:03:53;16.25;;;10.10;;
49464;SDS011;35358;49.342;8.802;2023-03-29T06:06:20;16.58;;;10.07;;
49464;SDS011;35358;49.342;8.802;2023-03-29T06:08:45;14.45;;;8.68;;
49464;SDS011;35358;49.342;8.802;2023-03-29T06:11:11;12.07;;;8.43;;
49464;SDS011;35358;49.342;8.802;2023-03-29T06:13:38;12.57;;;7.60;;
49464;SDS011;35358;49.342;8.802;2023-03-29T06:16:06;13.55;;;7.70;;
49464;SDS011;35358;49.342;8.802;2023-03-29T06:18:34;7.97;;;4.50;;
49464;SDS011;35358;49.342;8.802;2023-03-29T06:21:02;9.25;;;5.35;;
49464;SDS011;35358;49.342;8.802;2023-03-29T06:23:32;11.70;;;5.35;;
49464;SDS011;35358;49.342;8.802;2023-03-29T06:25:57;8.85;;;5.40;;
49464;SDS011;35358;49.342;8.802;2023-03-29T06:28:25;7.18;;;4.38;;
49464;SDS011;35358;49.342;8.802;2023-03-29T06:30:51;6.85;;;4.68;;
49464;SDS011;35358;49.342;8.802;2023-03-29T06:33:25;5.95;;;4.10;;
49464;SDS011;35358;49.342;8.802;2023-03-29T06:36:00;8.13;;;4.18;;
49464;SDS011;35358;49.342;8.802;2023-03-29T06:38:25;7.20;;;4.05;;
49464;SDS011;35358;49.342;8.802;2023-03-29T06:40:58;6.15;;;3.97;;
49464;SDS011;35358;49.342;8.802;2023-03-29T06:43:28;5.28;;;2.65;;
49464;SDS011;35358;49.342;8.802;2023-03-29T06:45:56;4.72;;;2.25;;
49464;SDS011;35358;49.342;8.802;2023-03-29T06:48:22;5.10;;;3.03;;
49464;SDS011;35358;49.342;8.802;2023-03-29T06:50:47;8.75;;;3.30;;
49464;SDS011;35358;49.342;8.802;2023-03-29T06:53:16;6.53;;;3.42;;
49464;SDS011;35358;49.342;8.802;2023-03-29T06:55:41;5.80;;;3.53;;
49464;SDS011;35358;49.342;8.802;2023-03-29T06:58:07;5.05;;;3.40;;
49464;SDS011;35358;49.342;8.802;2023-03-29T07:00:33;8.20;;;4.72;;
49464;SDS011;35358;49.342;8.802;2023-03-29T07:03:05;7.55;;;4.35;;
49464;SDS011;35358;49.342;8.802;2023-03-29T07:05:34;4.43;;;2.95;;
49464;SDS011;35358;49.342;8.802;2023-03-29T07:08:07;3.38;;;2.78;;
49464;SDS011;35358;49.342;8.802;2023-03-29T07:10:41;2.47;;;2.28;;
49464;SDS011;35358;49.342;8.802;2023-03-29T07:13:09;4.65;;;3.50;;
49464;SDS011;35358;49.342;8.802;2023-03-29T07:15:38;3.22;;;2.65;;
49464;SDS011;35358;49.342;8.802;2023-03-29T07:18:07;6.22;;;2.63;;
49464;SDS011;35358;49.342;8.802;2023-03-29T07:20:33;3.42;;;2.40;;
49464;SDS011;35358;49.342;8.802;2023-03-29T07:22:59;3.50;;;2.60;;
49464;SDS011;35358;49.342;8.802;2023-03-29T07:25:25;5.18;;;2.42;;
49464;SDS011;35358;49.342;8.802;2023-03-29T07:27:51;4.38;;;1.90;;
49464;SDS011;35358;49.342;8.802;2023-03-29T07:30:19;2.28;;;1.52;;
49464;SDS011;35358;49.342;8.802;2023-03-29T07:32:48;5.32;;;2.05;;
49464;SDS011;35358;49.342;8.802;2023-03-29T07:35:15;5.05;;;2.90;;
49464;SDS011;35358;49.342;8.802;2023-03-29T07:37:41;5.70;;;3.08;;
49464;SDS011;35358;49.342;8.802;2023-03-29T07:40:09;3.83;;;2.30;;
49464;SDS011;35358;49.342;8.802;2023-03-29T07:42:43;3.78;;;2.40;;
49464;SDS011;35358;49.342;8.802;2023-03-29T07:45:12;5.32;;;2.42;;
49464;SDS011;35358;49.342;8.802;2023-03-29T07:47:40;3.70;;;2.75;;
49464;SDS011;35358;49.342;8.802;2023-03-29T07:50:09;4.20;;;2.40;;
49464;SDS011;35358;49.342;8.802;2023-03-29T07:52:37;4.28;;;2.65;;
49464;SDS011;35358;49.342;8.802;2023-03-29T07:55:07;2.85;;;2.10;;
49464;SDS011;35358;49.342;8.802;2023-03-29T07:57:34;3.67;;;2.38;;
49464;SDS011;35358;49.342;8.802;2023-03-29T08:00:02;4.32;;;2.53;;
49464;SDS011;35358;49.342;8.802;2023-03-29T08:02:41;4.75;;;2.42;;
49464;SDS011;35358;49.342;8.802;2023-03-29T08:05:11;3.35;;;2.33;;
49464;SDS011;35358;49.342;8.802;2023-03-29T08:31:33;4.80;;;3.08;;
49464;SDS011;35358;49.342;8.802;2023-03-29T08:33:59;5.03;;;2.97;;
49464;SDS011;35358;49.342;8.802;2023-03-29T08:36:27;4.07;;;2.60;;
49464;SDS011;35358;49.342;8.802;2023-03-29T08:38:55;11.70;;;3.15;;
49464;SDS011;35358;49.342;8.802;2023-03-29T08:47:41;5.90;;;3.00;;
49464;SDS011;35358;49.342;8.802;2023-03-29T08:50:14;4.75;;;2.90;;
49464;SDS011;35358;49.342;8.802;2023-03-29T08:52:43;3.90;;;2.30;;
49464;SDS011;35358;49.342;8.802;2023-03-29T08:55:23;8.82;;;2.78;;
49464;SDS011;35358;49.342;8.802;2023-03-29T08:58:01;5.25;;;2.55;;
49464;SDS011;35358;49.342;8.802;2023-03-29T09:00:53;6.40;;;4.30;;
49464;SDS011;35358;49.342;8.802;2023-03-29T09:05:52;5.28;;;3.15;;
49464;SDS011;35358;49.342;8.802;2023-03-29T09:08:23;4.28;;;3.05;;
49464;SDS011;35358;49.342;8.802;2023-03-29T09:13:47;5.63;;;2.97;;
49464;SDS011;35358;49.342;8.802;2023-03-29T09:19:04;4.38;;;2.72;;
49464;SDS011;35358;49.342;8.802;2023-03-29T09:22:15;5.55;;;2.88;;
49464;SDS011;35358;49.342;8.802;2023-03-29T09:27:50;7.95;;;3.25;;
49464;SDS011;35358;49.342;8.802;2023-03-29T09:31:10;5.35;;;2.67;;
49464;SDS011;35358;49.342;8.802;2023-03-29T09:36:11;4.55;;;2.80;;
49464;SDS011;35358;49.342;8.802;2023-03-29T09:38:49;5.03;;;3.10;;
49464;SDS011;35358;49.342;8.802;2023-03-29T09:44:42;3.47;;;2.30;;
49464;SDS011;35358;49.342;8.802;2023-03-29T09:49:57;5.30;;;2.72;;
49464;SDS011;35358;49.342;8.802;2023-03-29T09:52:26;3.55;;;2.35;;
49464;SDS011;35358;49.342;8.802;2023-03-29T09:54:54;3.60;;;2.08;;
49464;SDS011;35358;49.342;8.802;2023-03-29T09:57:27;3.08;;;2.13;;
49464;SDS011;35358;49.342;8.802;2023-03-29T09:59:54;3.35;;;2.30;;
49464;SDS011;35358;49.342;8.802;2023-03-29T10:02:21;5.75;;;2.95;;
49464;SDS011;35358;49.342;8.802;2023-03-29T10:04:51;5.57;;;2.67;;
49464;SDS011;35358;49.342;8.802;2023-03-29T10:07:31;6.45;;;2.38;;
49464;SDS011;35358;49.342;8.802;2023-03-29T10:10:06;4.07;;;2.35;;
49464;SDS011;35358;49.342;8.802;2023-03-29T10:12:34;7.18;;;2.85;;
49464;SDS011;35358;49.342;8.802;2023-03-29T10:15:00;5.13;;;2.60;;
49464;SDS011;35358;49.342;8.802;2023-03-29T10:17:36;5.47;;;2.90;;
49464;SDS011;35358;49.342;8.802;2023-03-29T10:20:05;4.45;;;2.50;;
49464;SDS011;35358;49.342;8.802;2023-03-29T10:22:36;4.22;;;2.03;;
49464;SDS011;35358;49.342;8.802;2023-03-29T10:25:08;3.20;;;1.90;;
49464;SDS011;35358;49.342;8.802;2023-03-29T10:27:41;9.65;;;2.85;;
49464;SDS011;35358;49.342;8.802;2023-03-29T10:30:09;4.15;;;2.28;;
49464;SDS011;35358;49.342;8.802;2023-03-29T10:32:42;4.18;;;2.17;;
49464;SDS011;35358;49.342;8.802;2023-03-29T10:37:47;3.40;;;2.53;;
49464;SDS011;35358;49.342;8.802;2023-03-29T10:40:26;5.40;;;2.25;;
49464;SDS011;35358;49.342;8.802;2023-03-29T10:42:59;6.40;;;2.60;;
49464;SDS011;35358;49.342;8.802;2023-03-29T10:45:27;7.60;;;2.95;;
49464;SDS011;35358;49.342;8.802;2023-03-29T10:47:55;4.22;;;2.25;;
49464;SDS011;35358;49.342;8.802;2023-03-29T10:50:23;4.13;;;2.35;;
49464;SDS011;35358;49.342;8.802;2023-03-29T10:52:57;3.15;;;2.08;;
49464;SDS011;35358;49.342;8.802;2023-03-29T10:55:23;4.97;;;2.58;;
49464;SDS011;35358;49.342;8.802;2023-03-29T10:58:10;5.28;;;3.05;;
49464;SDS011;35358;49.342;8.802;2023-03-29T11:00:49;6.85;;;2.80;;
49464;SDS011;35358;49.342;8.802;2023-03-29T11:22:50;3.83;;;1.65;;
49464;SDS011;35358;49.342;8.802;2023-03-29T11:28:05;3.10;;;1.50;;
49464;SDS011;35358;49.342;8.802;2023-03-29T11:39:27;3.03;;;1.75;;
49464;SDS011;35358;49.342;8.802;2023-03-29T11:42:10;3.95;;;1.50;;
49464;SDS011;35358;49.342;8.802;2023-03-29T11:44:50;4.13;;;1.52;;
49464;SDS011;35358;49.342;8.802;2023-03-29T11:47:21;5.22;;;2.25;;
49464;SDS011;35358;49.342;8.802;2023-03-29T11:50:04;4.32;;;1.60;;
49464;SDS011;35358;49.342;8.802;2023-03-29T11:52:52;3.88;;;1.58;;
49464;SDS011;35358;49.342;8.802;2023-03-29T12:00:34;4.32;;;1.50;;
49464;SDS011;35358;49.342;8.802;2023-03-29T12:03:08;3.17;;;1.75;;
49464;SDS011;35358;49.342;8.802;2023-03-29T12:05:47;6.32;;;1.83;;
49464;SDS011;35358;49.342;8.802;2023-03-29T12:08:29;3.50;;;1.83;;
49464;SDS011;35358;49.342;8.802;2023-03-29T12:11:10;5.18;;;1.95;;
49464;SDS011;35358;49.342;8.802;2023-03-29T12:13:52;3.87;;;1.50;;
49464;SDS011;35358;49.342;8.802;2023-03-29T12:16:36;5.55;;;1.70;;
49464;SDS011;35358;49.342;8.802;2023-03-29T12:22:17;3.92;;;1.25;;
49464;SDS011;35358;49.342;8.802;2023-03-29T12:24:45;5.65;;;1.60;;
49464;SDS011;35358;49.342;8.802;2023-03-29T12:27:18;3.75;;;1.85;;
49464;SDS011;35358;49.342;8.802;2023-03-29T12:30:00;5.70;;;1.65;;
49464;SDS011;35358;49.342;8.802;2023-03-29T12:40:47;4.30;;;1.60;;
49464;SDS011;35358;49.342;8.802;2023-03-29T12:46:06;4.28;;;1.55;;
49464;SDS011;35358;49.342;8.802;2023-03-29T12:48:35;2.72;;;1.67;;
49464;SDS011;35358;49.342;8.802;2023-03-29T12:51:03;3.13;;;1.40;;
49464;SDS011;35358;49.342;8.802;2023-03-29T12:53:46;4.47;;;1.40;;
49464;SDS011;35358;49.342;8.802;2023-03-29T12:56:20;5.57;;;1.40;;
49464;SDS011;35358;49.342;8.802;2023-03-29T12:59:04;3.40;;;1.35;;
49464;SDS011;35358;49.342;8.802;2023-03-29T13:01:56;2.67;;;1.63;;
49464;SDS011;35358;49.342;8.802;2023-03-29T13:04:38;3.47;;;1.20;;
49464;SDS011;35358;49.342;8.802;2023-03-29T13:09:51;4.15;;;1.58;;
49464;SDS011;35358;49.342;8.802;2023-03-29T13:12:28;7.30;;;1.98;;
49464;SDS011;35358;49.342;8.802;2023-03-29T13:25:13;1.92;;;1.20;;
49464;SDS011;35358;49.342;8.802;2023-03-29T13:27:53;5.20;;;1.42;;
49464;SDS011;35358;49.342;8.802;2023-03-29T13:36:02;6.07;;;1.65;;
49464;SDS011;35358;49.342;8.802;2023-03-29T13:38:29;3.20;;;1.48;;
49464;SDS011;35358;49.342;8.802;2023-03-29T13:43:34;2.63;;;1.30;;
49464;SDS011;35358;49.342;8.802;2023-03-29T13:46:22;4.80;;;1.42;;
49464;SDS011;35358;49.342;8.802;2023-03-29T13:49:20;2.83;;;1.40;;
49464;SDS011;35358;49.342;8.802;2023-03-29T13:55:02;3.28;;;1.40;;
49464;SDS011;35358;49.342;8.802;2023-03-29T14:00:48;6.90;;;1.80;;
49464;SDS011;35358;49.342;8.802;2023-03-29T14:03:19;4.63;;;1.75;;
49464;SDS011;35358;49.342;8.802;2023-03-29T14:05:56;3.22;;;1.60;;
49464;SDS011;35358;49.342;8.802;2023-03-29T14:08:30;3.78;;;1.73;;
49464;SDS011;35358;49.342;8.802;2023-03-29T14:11:00;2.33;;;1.45;;
49464;SDS011;35358;49.342;8.802;2023-03-29T14:13:30;5.90;;;2.03;;
49464;SDS011;35358;49.342;8.802;2023-03-29T14:16:01;4.88;;;1.40;;
49464;SDS011;35358;49.342;8.802;2023-03-29T14:18:35;4.82;;;1.50;;
49464;SDS011;35358;49.342;8.802;2023-03-29T14:21:05;3.88;;;1.73;;
49464;SDS011;35358;49.342;8.802;2023-03-29T14:23:35;7.97;;;2.47;;
49464;SDS011;35358;49.342;8.802;2023-03-29T14:26:07;2.72;;;1.20;;
49464;SDS011;35358;49.342;8.802;2023-03-29T14:28:59;3.25;;;1.13;;
49464;SDS011;35358;49.342;8.802;2023-03-29T14:31:35;3.50;;;1.05;;
49464;SDS011;35358;49.342;8.802;2023-03-29T14:36:40;1.23;;;0.98;;
49464;SDS011;35358;49.342;8.802;2023-03-29T14:39:17;1.92;;;1.00;;
49464;SDS011;35358;49.342;8.802;2023-03-29T14:41:49;3.03;;;1.00;;
49464;SDS011;35358;49.342;8.802;2023-03-29T14:44:26;2.53;;;0.95;;
49464;SDS011;35358;49.342;8.802;2023-03-29T14:46:59;1.98;;;0.77;;
49464;SDS011;35358;49.342;8.802;2023-03-29T14:49:26;2.08;;;0.93;;
49464;SDS011;35358;49.342;8.802;2023-03-29T14:51:52;3.40;;;0.93;;
49464;SDS011;35358;49.342;8.802;2023-03-29T14:54:28;3.30;;;1.20;;
49464;SDS011;35358;49.342;8.802;2023-03-29T14:56:57;5.70;;;1.30;;
49464;SDS011;35358;49.342;8.802;2023-03-29T14:59:28;1.23;;;0.90;;
49464;SDS011;35358;49.342;8.802;2023-03-29T15:02:03;4.13;;;1.03;;
49464;SDS011;35358;49.342;8.802;2023-03-29T15:04:53;1.63;;;0.80;;
49464;SDS011;35358;49.342;8.802;2023-03-29T15:07:21;2.63;;;1.02;;
49464;SDS011;35358;49.342;8.802;2023-03-29T15:09:48;3.45;;;0.88;;
49464;SDS011;35358;49.342;8.802;2023-03-29T15:12:13;1.83;;;0.73;;
49464;SDS011;35358;49.342;8.802;2023-03-29T15:14:46;2.70;;;0.80;;
49464;SDS011;35358;49.342;8.802;2023-03-29T15:19:45;4.22;;;1.20;;
49464;SDS011;35358;49.342;8.802;2023-03-29T15:22:10;2.60;;;0.90;;
49464;SDS011;35358;49.342;8.802;2023-03-29T15:24:41;2.42;;;1.02;;
49464;SDS011;35358;49.342;8.802;2023-03-29T15:27:13;3.58;;;1.10;;
49464;SDS011;35358;49.342;8.802;2023-03-29T15:29:45;1.98;;;0.80;;
49464;SDS011;35358;49.342;8.802;2023-03-29T15:32:21;3.42;;;1.83;;
49464;SDS011;35358;49.342;8.802;2023-03-29T15:35:02;3.63;;;0.90;;
49464;SDS011;35358;49.342;8.802;2023-03-29T15:37:33;5.43;;;1.20;;
49464;SDS011;35358;49.342;8.802;2023-03-29T15:39:59;2.42;;;0.90;;
49464;SDS011;35358;49.342;8.802;2023-03-29T15:42:29;2.88;;;1.23;;
49464;SDS011;35358;49.342;8.802;2023-03-29T15:44:57;1.88;;;0.70;;
49464;SDS011;35358;49.342;8.802;2023-03-29T15:47:23;2.78;;;1.10;;
49464;SDS011;35358;49.342;8.802;2023-03-29T15:49:49;3.13;;;0.82;;
49464;SDS011;35358;49.342;8.802;2023-03-29T15:52:18;3.00;;;1.00;;
49464;SDS011;35358;49.342;8.802;2023-03-29T15:54:43;3.95;;;1.00;;
49464;SDS011;35358;49.342;8.802;2023-03-29T15:57:14;3.25;;;0.80;;
49464;SDS011;35358;49.342;8.802;2023-03-29T15:59:41;1.85;;;0.93;;
49464;SDS011;35358;49.342;8.802;2023-03-29T16:02:11;2.22;;;1.10;;
49464;SDS011;35358;49.342;8.802;2023-03-29T16:04:41;3.58;;;1.27;;
49464;SDS011;35358;49.342;8.802;2023-03-29T16:07:12;6.82;;;1.27;;
49464;SDS011;35358;49.342;8.802;2023-03-29T16:12:09;4.97;;;0.90;;
49464;SDS011;35358;49.342;8.802;2023-03-29T16:14:39;4.03;;;1.00;;
49464;SDS011;35358;49.342;8.802;2023-03-29T16:17:07;2.20;;;0.90;;
49464;SDS011;35358;49.342;8.802;2023-03-29T16:19:32;6.13;;;1.83;;
49464;SDS011;35358;49.342;8.802;2023-03-29T16:21:58;2.30;;;1.10;;
49464;SDS011;35358;49.342;8.802;2023-03-29T16:24:30;4.25;;;1.33;;
49464;SDS011;35358;49.342;8.802;2023-03-29T16:26:56;1.70;;;0.80;;
49464;SDS011;35358;49.342;8.802;2023-03-29T16:29:25;1.13;;;0.80;;
49464;SDS011;35358;49.342;8.802;2023-03-29T16:31:51;3.97;;;1.20;;
49464;SDS011;35358;49.342;8.802;2023-03-29T16:34:18;4.90;;;1.23;;
49464;SDS011;35358;49.342;8.802;2023-03-29T16:36:47;2.35;;;0.82;;
49464;SDS011;35358;49.342;8.802;2023-03-29T16:39:13;3.15;;;1.50;;
49464;SDS011;35358;49.342;8.802;2023-03-29T16:41:43;2.38;;;1.10;;
49464;SDS011;35358;49.342;8.802;2023-03-29T16:44:13;5.53;;;1.40;;
49464;SDS011;35358;49.342;8.802;2023-03-29T16:46:41;2.90;;;1.23;;
49464;SDS011;35358;49.342;8.802;2023-03-29T16:49:12;2.92;;;1.35;;
49464;SDS011;35358;49.342;8.802;2023-03-29T16:51:42;2.90;;;1.48;;
49464;SDS011;35358;49.342;8.802;2023-03-29T16:54:11;2.97;;;1.33;;
49464;SDS011;35358;49.342;8.802;2023-03-29T16:56:37;6.20;;;1.40;;
49464;SDS011;35358;49.342;8.802;2023-03-29T16:59:03;4.53;;;1.67;;
49464;SDS011;35358;49.342;8.802;2023-03-29T17:01:28;3.15;;;1.40;;
49464;SDS011;35358;49.342;8.802;2023-03-29T17:03:54;2.80;;;1.05;;
49464;SDS011;35358;49.342;8.802;2023-03-29T17:06:21;4.70;;;1.38;;
49464;SDS011;35358;49.342;8.802;2023-03-29T17:08:51;3.30;;;1.30;;
49464;SDS011;35358;49.342;8.802;2023-03-29T17:11:19;4.45;;;1.60;;
49464;SDS011;35358;49.342;8.802;2023-03-29T17:13:47;3.47;;;1.48;;
49464;SDS011;35358;49.342;8.802;2023-03-29T17:16:16;3.17;;;1.30;;
49464;SDS011;35358;49.342;8.802;2023-03-29T17:18:41;4.60;;;1.35;;
49464;SDS011;35358;49.342;8.802;2023-03-29T17:21:07;4.47;;;1.52;;
49464;SDS011;35358;49.342;8.802;2023-03-29T17:23:35;4.93;;;1.30;;
49464;SDS011;35358;49.342;8.802;2023-03-29T17:26:01;2.47;;;1.10;;
49464;SDS011;35358;49.342;8.802;2023-03-29T17:28:26;6.10;;;1.20;;
49464;SDS011;35358;49.342;8.802;2023-03-29T17:30:55;4.10;;;1.77;;
49464;SDS011;35358;49.342;8.802;2023-03-29T17:33:26;3.63;;;2.47;;
49464;SDS011;35358;49.342;8.802;2023-03-29T17:35:52;2.75;;;2.28;;
49464;SDS011;35358;49.342;8.802;2023-03-29T17:38:20;4.82;;;2.20;;
49464;SDS011;35358;49.342;8.802;2023-03-29T17:40:54;5.28;;;2.35;;
49464;SDS011;35358;49.342;8.802;2023-03-29T17:43:19;4.90;;;1.88;;
49464;SDS011;35358;49.342;8.802;2023-03-29T17:45:51;3.42;;;1.42;;
49464;SDS011;35358;49.342;8.802;2023-03-29T17:48:17;3.90;;;1.15;;
49464;SDS011;35358;49.342;8.802;2023-03-29T17:50:46;2.63;;;1.65;;